Time;durP1;ratioP1;P1;durP2;ratioP2;P2;SDS_P1;SDS_P2;PMS_P1;PMS_P2;Temp;Humidity;BMP_temperature;BMP_pressure;BME280_temperature;BME280_humidity;BME280_pressure;Samples;Min_cycle;Max_cycle;Signal;HPM_P1;HPM_P2
2022/03/12 08:28:01;;;;;;;9.55;6.55;;;7.80;99.90;;;;;;5111119;27;20992;-76
2022/03/12 08:30:27;;;;;;;7.82;6.55;;;7.90;99.90;;;;;;5109962;28;20182;-77
2022/03/12 08:32:53;;;;;;;7.18;6.40;;;7.90;99.90;;;;;;5111164;28;20163;-76
2022/03/12 08:35:18;;;;;;;9.00;6.68;;;8.00;99.90;;;;;;5111068;28;20493;-77
2022/03/12 08:37:44;;;;;;;8.13;6.68;;;8.20;99.90;;;;;;5111092;28;20167;-74
2022/03/12 08:40:14;;;;;;;7.72;7.00;;;8.20;99.90;;;;;;5111125;28;20171;-75
2022/03/12 08:42:40;;;;;;;12.02;6.90;;;8.20;99.90;;;;;;5111008;28;20639;-74
2022/03/12 08:45:08;;;;;;;7.03;6.32;;;8.90;99.90;;;;;;5109712;28;20182;-75
2022/03/12 08:47:34;;;;;;;9.93;6.53;;;8.30;99.90;;;;;;5110867;28;20213;-74
2022/03/12 08:50:00;;;;;;;7.40;6.63;;;8.30;99.90;;;;;;5110877;28;20628;-74
2022/03/12 08:52:26;;;;;;;7.80;6.28;;;8.40;99.90;;;;;;5110868;28;20166;-74
2022/03/12 08:54:51;;;;;;;10.35;7.07;;;8.50;99.90;;;;;;5110833;28;20168;-75
2022/03/12 08:57:17;;;;;;;9.95;6.10;;;8.50;99.90;;;;;;5110728;28;20201;-75
2022/03/12 08:59:43;;;;;;;7.97;7.03;;;8.70;99.90;;;;;;5109509;28;20565;-75
2022/03/12 09:02:09;;;;;;;8.63;6.43;;;8.90;99.90;;;;;;5110581;28;20175;-75
2022/03/12 09:04:35;;;;;;;8.00;6.20;;;8.70;99.90;;;;;;5110625;28;20171;-75
2022/03/12 09:07:01;;;;;;;12.57;6.47;;;8.80;99.90;;;;;;5110535;28;20552;-74
2022/03/12 09:09:26;;;;;;;7.47;6.68;;;8.80;99.90;;;;;;5109276;28;20632;-75
2022/03/12 09:11:52;;;;;;;7.68;6.88;;;8.90;99.90;;;;;;5109252;28;20175;-74
2022/03/12 09:14:18;;;;;;;7.40;6.65;;;9.00;99.90;;;;;;5110376;28;20212;-74
2022/03/12 09:16:44;;;;;;;7.15;6.45;;;9.10;99.90;;;;;;5110279;28;20274;-74
2022/03/12 09:19:10;;;;;;;6.53;5.90;;;9.10;99.90;;;;;;5110326;28;20203;-75
2022/03/12 09:21:37;;;;;;;6.90;5.93;;;9.20;99.90;;;;;;5110075;28;20256;-74
2022/03/12 09:24:03;;;;;;;9.40;7.20;;;9.30;99.90;;;;;;5110399;28;20167;-74
2022/03/12 09:26:29;;;;;;;6.40;5.70;;;9.30;99.90;;;;;;5109815;28;20718;-75
2022/03/12 09:28:55;;;;;;;9.32;6.57;;;9.40;99.90;;;;;;5110142;28;20264;-75
2022/03/12 09:31:21;;;;;;;8.70;6.68;;;9.40;99.90;;;;;;5110061;28;20191;-75
2022/03/12 09:33:46;;;;;;;11.00;6.93;;;9.50;99.90;;;;;;5110015;28;20224;-76
2022/03/12 09:36:12;;;;;;;7.68;6.55;;;9.50;99.90;;;;;;5109928;28;20254;-75
2022/03/12 09:38:39;;;;;;;6.78;5.97;;;9.60;99.90;;;;;;5099348;28;20214;-76
2022/03/12 09:41:05;;;;;;;7.20;6.50;;;9.70;99.90;;;;;;5095023;28;20220;-76
2022/03/12 09:43:30;;;;;;;7.63;6.82;;;9.80;99.90;;;;;;5096328;28;20168;-75
2022/03/12 09:45:57;;;;;;;6.55;5.95;;;9.80;99.90;;;;;;5096079;28;20187;-75
2022/03/12 09:48:22;;;;;;;7.57;6.40;;;9.90;99.90;;;;;;5096206;28;20171;-76
2022/03/12 09:50:50;;;;;;;7.55;6.25;;;9.90;99.90;;;;;;5096181;28;20532;-75
2022/03/12 09:53:15;;;;;;;6.28;5.68;;;10.00;99.90;;;;;;5096048;28;20160;-75
2022/03/12 09:55:41;;;;;;;7.88;6.45;;;10.10;99.90;;;;;;5096007;28;20174;-75
2022/03/12 09:58:06;;;;;;;8.07;6.93;;;10.20;99.90;;;;;;5095954;28;20622;-76
2022/03/12 10:00:32;;;;;;;8.93;6.97;;;10.20;99.90;;;;;;5095901;28;20213;-75
2022/03/12 10:02:58;;;;;;;8.05;7.20;;;10.20;99.90;;;;;;5095785;28;20167;-75
2022/03/12 10:05:24;;;;;;;6.88;6.10;;;10.30;99.90;;;;;;5095819;28;20637;-75
2022/03/12 10:07:49;;;;;;;7.00;6.30;;;10.40;99.90;;;;;;5095768;28;20692;-75
2022/03/12 10:10:20;;;;;;;18.95;7.18;;;10.40;99.90;;;;;;5095771;28;20233;-75
2022/03/12 10:12:47;;;;;;;7.60;6.78;;;10.60;99.90;;;;;;5095826;28;20221;-75
2022/03/12 10:15:15;;;;;;;8.60;6.78;;;10.70;99.90;;;;;;5095659;28;20237;-75
2022/03/12 10:17:41;;;;;;;7.97;7.22;;;10.70;99.90;;;;;;5095661;28;20166;-76
2022/03/12 10:20:09;;;;;;;10.43;6.25;;;10.80;99.90;;;;;;5094272;28;20510;-75
2022/03/12 10:22:35;;;;;;;7.43;6.70;;;10.80;99.90;;;;;;5095557;28;20167;-75
2022/03/12 10:25:01;;;;;;;6.93;6.32;;;10.80;99.90;;;;;;5095526;28;20168;-75
2022/03/12 10:27:26;;;;;;;7.05;6.45;;;10.80;99.90;;;;;;5095186;28;20747;-76
2022/03/12 10:29:52;;;;;;;7.78;6.50;;;11.00;99.90;;;;;;5095390;28;20170;-75
2022/03/12 10:32:28;;;;;;;8.63;6.30;;;10.90;99.90;;;;;;5095345;28;20613;-75
2022/03/12 10:34:56;;;;;;;6.88;6.22;;;10.90;99.90;;;;;;5095359;28;20162;-75
2022/03/12 10:37:24;;;;;;;7.55;6.88;;;11.00;99.90;;;;;;5094032;28;20176;-75
2022/03/12 10:40:16;;;;;;;7.20;6.50;;;10.90;99.90;;;;;;5095011;28;20259;-75
2022/03/12 10:42:58;;;;;;;7.95;6.38;;;11.00;99.90;;;;;;5095127;28;20494;-75
2022/03/12 10:45:26;;;;;;;12.18;6.50;;;11.10;99.90;;;;;;5095075;28;20175;-75
2022/03/12 10:47:55;;;;;;;8.48;6.78;;;11.10;99.90;;;;;;5094853;28;20245;-75
2022/03/12 10:50:27;;;;;;;9.90;7.28;;;11.10;99.90;;;;;;5093931;28;20202;-75
2022/03/12 10:52:55;;;;;;;11.05;7.65;;;11.20;99.90;;;;;;5094990;28;20517;-75
2022/03/12 10:55:33;;;;;;;7.32;6.60;;;11.30;99.90;;;;;;5094879;28;20156;-75
2022/03/12 10:58:19;;;;;;;9.55;6.43;;;11.40;99.90;;;;;;5094918;28;20176;-75
2022/03/12 11:00:56;;;;;;;9.38;7.28;;;11.50;99.90;;;;;;5094830;28;20171;-75
2022/03/12 11:03:31;;;;;;;10.02;7.28;;;11.50;99.90;;;;;;5094779;28;20193;-75
2022/03/12 11:05:57;;;;;;;7.15;6.35;;;11.60;99.90;;;;;;5094680;28;20186;-75
2022/03/12 11:08:23;;;;;;;8.18;6.97;;;11.60;99.90;;;;;;5094651;28;20171;-75
2022/03/12 11:10:57;;;;;;;7.97;7.18;;;11.50;99.90;;;;;;5094522;28;20164;-75
2022/03/12 11:13:25;;;;;;;10.77;7.57;;;11.70;99.90;;;;;;5094512;28;20194;-75
2022/03/12 11:16:26;;;;;;;7.63;6.82;;;11.70;99.90;;;;;;5094537;28;20164;-75
2022/03/12 11:18:51;;;;;;;7.68;6.97;;;11.80;99.90;;;;;;5094464;28;20168;-75
2022/03/12 11:21:33;;;;;;;8.43;6.40;;;11.90;99.90;;;;;;5094358;28;20216;-75
2022/03/12 11:23:59;;;;;;;7.13;6.50;;;12.00;99.90;;;;;;5094400;28;20164;-75
2022/03/12 11:26:28;;;;;;;8.30;7.50;;;12.00;99.90;;;;;;5093988;28;20688;-75
2022/03/12 11:28:59;;;;;;;7.85;7.03;;;12.10;99.90;;;;;;5094280;28;20556;-75
2022/03/12 11:31:48;;;;;;;7.28;6.63;;;11.80;99.90;;;;;;5094219;28;20159;-75
2022/03/12 11:34:14;;;;;;;10.57;6.82;;;12.20;99.90;;;;;;5094165;28;20168;-75
2022/03/12 11:36:42;;;;;;;10.10;6.85;;;12.30;99.90;;;;;;5094107;28;20179;-75
2022/03/12 11:39:08;;;;;;;9.70;6.97;;;12.40;99.90;;;;;;5094048;28;20636;-75
2022/03/12 11:41:37;;;;;;;7.60;6.90;;;12.60;99.90;;;;;;5094031;28;20176;-75
2022/03/12 11:44:07;;;;;;;8.50;6.65;;;12.80;99.90;;;;;;5093972;28;20172;-75
2022/03/12 11:46:33;;;;;;;6.65;6.15;;;13.00;99.90;;;;;;5093982;28;20188;-75
2022/03/12 11:48:59;;;;;;;8.77;6.63;;;13.10;99.90;;;;;;5093803;28;20644;-75
2022/03/12 11:51:25;;;;;;;6.82;6.20;;;12.90;99.90;;;;;;5093858;28;20221;-75
2022/03/12 11:53:53;;;;;;;7.70;6.70;;;13.20;99.90;;;;;;5093833;28;20175;-75
2022/03/12 11:56:21;;;;;;;7.40;6.82;;;13.20;99.90;;;;;;5093776;28;20590;-75
2022/03/12 11:58:47;;;;;;;8.35;6.60;;;13.10;99.90;;;;;;5093780;28;20633;-75
2022/03/12 12:01:20;;;;;;;10.98;6.60;;;13.00;99.90;;;;;;5093620;28;20168;-75
2022/03/12 12:03:47;;;;;;;6.45;5.95;;;13.30;99.90;;;;;;5093865;28;20164;-75
2022/03/12 12:06:14;;;;;;;7.55;6.85;;;13.10;99.90;;;;;;5093595;28;20390;-75
2022/03/12 12:08:40;;;;;;;7.07;6.38;;;13.10;99.90;;;;;;5093735;28;20577;-75
2022/03/12 12:11:06;;;;;;;6.82;6.25;;;13.20;99.90;;;;;;5092443;28;20206;-75
2022/03/12 12:13:33;;;;;;;6.55;5.95;;;13.20;99.90;;;;;;5092379;28;20516;-75
2022/03/12 12:15:58;;;;;;;7.53;6.30;;;13.20;99.90;;;;;;5093535;28;20156;-75
2022/03/12 12:18:25;;;;;;;7.43;6.82;;;12.90;99.90;;;;;;5092497;28;20198;-75
2022/03/12 12:20:50;;;;;;;10.13;7.20;;;12.80;99.90;;;;;;5093458;28;20170;-75
2022/03/12 12:23:18;;;;;;;8.20;6.40;;;12.70;99.90;;;;;;5093470;28;20171;-75
2022/03/12 12:25:44;;;;;;;6.50;5.95;;;12.90;99.90;;;;;;5093138;28;20174;-75
2022/03/12 12:28:23;;;;;;;7.40;6.38;;;13.00;99.90;;;;;;5093445;28;20519;-75
2022/03/12 12:30:52;;;;;;;7.10;6.45;;;13.10;99.90;;;;;;5093390;28;20298;-75
2022/03/12 12:33:26;;;;;;;9.07;6.07;;;13.10;99.90;;;;;;5092042;28;20168;-75
2022/03/12 12:36:10;;;;;;;7.78;6.97;;;13.20;99.90;;;;;;5092344;28;20644;-75
2022/03/12 12:38:37;;;;;;;6.45;5.95;;;13.30;99.90;;;;;;5092096;28;20171;-75
2022/03/12 12:41:03;;;;;;;6.57;5.97;;;13.40;99.90;;;;;;5093119;28;20246;-75
2022/03/12 12:43:42;;;;;;;7.90;6.43;;;13.70;99.90;;;;;;5091935;28;20183;-75
2022/03/12 12:46:17;;;;;;;7.47;6.50;;;13.30;99.90;;;;;;5093011;28;20195;-75
2022/03/12 12:48:48;;;;;;;6.20;5.70;;;13.40;99.90;;;;;;5093062;28;20246;-75
2022/03/12 12:51:22;;;;;;;6.22;5.72;;;13.40;99.90;;;;;;5092595;28;20659;-75
2022/03/12 12:53:49;;;;;;;5.82;5.38;;;13.50;99.90;;;;;;5093058;28;20164;-76
2022/03/12 12:56:30;;;;;;;6.90;6.20;;;13.30;99.90;;;;;;5092910;28;20171;-75
2022/03/12 12:58:56;;;;;;;6.32;5.70;;;13.30;99.90;;;;;;5092988;28;20346;-75
2022/03/12 13:01:27;;;;;;;6.20;5.63;;;13.50;99.90;;;;;;5092952;28;20164;-75
2022/03/12 13:03:54;;;;;;;8.15;5.57;;;13.40;99.90;;;;;;5091630;28;20168;-75
2022/03/12 13:06:41;;;;;;;7.30;5.75;;;13.30;99.90;;;;;;5092967;28;20203;-75
2022/03/12 13:09:14;;;;;;;8.27;6.20;;;13.20;99.90;;;;;;5091559;28;20168;-75
2022/03/12 13:11:49;;;;;;;8.32;6.18;;;13.20;99.90;;;;;;5092926;28;20175;-75
2022/03/12 13:14:23;;;;;;;6.50;6.00;;;13.20;99.90;;;;;;5094336;28;20209;-75
2022/03/12 13:16:56;;;;;;;6.40;5.70;;;13.30;99.90;;;;;;5095346;28;20265;-75
2022/03/12 13:19:33;;;;;;;12.43;7.05;;;13.20;99.90;;;;;;5096509;28;20168;-75
2022/03/12 13:22:07;;;;;;;6.40;5.80;;;13.20;99.90;;;;;;5095430;28;20260;-75
2022/03/12 13:24:52;;;;;;;8.25;5.68;;;13.40;99.90;;;;;;5095175;28;20176;-75
2022/03/12 13:27:26;;;;;;;8.27;5.75;;;13.60;99.90;;;;;;5096167;28;20579;-75
2022/03/12 13:30:25;;;;;;;6.50;5.80;;;13.90;99.90;;;;;;5096359;28;20168;-76
2022/03/12 13:32:53;;;;;;;8.23;5.38;;;13.90;99.90;;;;;;5096395;28;20242;-75
2022/03/12 13:35:21;;;;;;;6.32;5.82;;;14.00;99.90;;;;;;5094983;28;20172;-75
2022/03/12 13:37:51;;;;;;;5.65;5.15;;;14.20;99.90;;;;;;5096142;28;20619;-75
2022/03/12 13:40:21;;;;;;;5.35;4.82;;;14.20;99.90;;;;;;5096394;28;20246;-75
2022/03/12 13:42:52;;;;;;;5.40;5.00;;;14.20;99.90;;;;;;5096283;28;20156;-75
2022/03/12 13:45:18;;;;;;;6.65;5.65;;;14.20;99.90;;;;;;5096253;28;20605;-75
2022/03/12 13:47:59;;;;;;;6.25;5.68;;;14.10;99.90;;;;;;5096063;28;20179;-75
2022/03/12 13:50:27;;;;;;;5.20;4.80;;;14.10;99.90;;;;;;5096069;28;20569;-75
2022/03/12 13:52:58;;;;;;;6.40;5.18;;;14.00;99.90;;;;;;5096006;28;20194;-75
2022/03/12 13:55:27;;;;;;;5.50;5.07;;;14.00;99.90;;;;;;5095917;28;20167;-75
2022/03/12 13:58:02;;;;;;;5.50;5.00;;;14.00;99.90;;;;;;5095896;28;20200;-75
2022/03/12 14:00:29;;;;;;;5.45;4.90;;;13.90;99.90;;;;;;5094558;28;20220;-75
2022/03/12 14:02:57;;;;;;;5.18;4.78;;;13.80;99.90;;;;;;5095884;28;20628;-75
2022/03/12 14:05:40;;;;;;;5.22;4.50;;;13.80;99.90;;;;;;5095764;28;20179;-75
2022/03/12 14:08:22;;;;;;;7.35;5.43;;;13.80;99.90;;;;;;5095711;28;20250;-75
2022/03/12 14:10:54;;;;;;;5.85;5.43;;;13.80;99.90;;;;;;5095650;28;20520;-75
2022/03/12 14:13:20;;;;;;;5.93;5.43;;;14.00;99.90;;;;;;5095691;28;20172;-75
2022/03/12 14:15:47;;;;;;;8.27;5.55;;;13.90;99.90;;;;;;5095581;28;20168;-75
2022/03/12 14:18:25;;;;;;;6.70;5.43;;;13.70;99.90;;;;;;5095591;28;20542;-75
2022/03/12 14:20:51;;;;;;;5.85;5.43;;;13.50;99.90;;;;;;5095392;28;20195;-74
2022/03/12 14:23:20;;;;;;;5.82;5.32;;;13.60;99.90;;;;;;5095435;28;20193;-74
2022/03/12 14:25:48;;;;;;;5.68;5.22;;;13.50;99.90;;;;;;5095115;28;20252;-75
2022/03/12 14:28:13;;;;;;;6.13;5.55;;;13.40;99.90;;;;;;5095383;28;20168;-74
2022/03/12 14:30:41;;;;;;;6.15;5.65;;;13.40;99.90;;;;;;5094068;28;20290;-74
2022/03/12 14:33:07;;;;;;;6.20;5.60;;;13.40;99.90;;;;;;5095325;28;20696;-74
2022/03/12 14:35:34;;;;;;;5.00;4.60;;;13.40;99.90;;;;;;5094026;28;20214;-75
2022/03/12 14:38:02;;;;;;;4.75;4.45;;;13.40;99.90;;;;;;5095163;28;20612;-75
2022/03/12 14:40:28;;;;;;;5.90;5.32;;;13.40;99.90;;;;;;5093965;28;20171;-74
2022/03/12 14:42:54;;;;;;;5.63;5.22;;;13.50;99.90;;;;;;5095183;28;20168;-74
2022/03/12 14:45:20;;;;;;;6.57;5.97;;;13.60;99.90;;;;;;5095095;28;20508;-71
2022/03/12 14:47:47;;;;;;;6.40;5.82;;;13.70;99.90;;;;;;5094926;28;20167;-70
2022/03/12 14:50:13;;;;;;;5.68;5.00;;;13.70;99.90;;;;;;5094833;28;20168;-72
2022/03/12 14:52:43;;;;;;;5.68;5.22;;;13.70;99.90;;;;;;5094891;28;20204;-72
2022/03/12 14:55:13;;;;;;;7.55;4.72;;;13.70;99.90;;;;;;5094866;28;20175;-72
2022/03/12 14:57:40;;;;;;;4.80;4.50;;;13.80;99.90;;;;;;5094800;28;20191;-74
2022/03/12 15:00:08;;;;;;;5.00;4.20;;;13.80;99.90;;;;;;5093457;28;20171;-74
2022/03/12 15:02:38;;;;;;;4.82;4.43;;;13.70;99.90;;;;;;5094742;28;20294;-71
2022/03/12 15:05:08;;;;;;;5.10;4.25;;;13.80;99.90;;;;;;5094622;28;20159;-72
2022/03/12 15:07:44;;;;;;;5.13;4.70;;;13.70;99.90;;;;;;5094650;28;20175;-73
2022/03/12 15:10:18;;;;;;;5.20;4.47;;;13.80;99.90;;;;;;5093309;28;20182;-72
2022/03/12 15:12:47;;;;;;;4.40;3.55;;;13.80;99.90;;;;;;5094622;28;20171;-72
2022/03/12 15:15:21;;;;;;;9.45;4.00;;;13.80;99.90;;;;;;5094320;28;20178;-71
2022/03/12 15:18:11;;;;;;;3.97;3.78;;;13.80;99.90;;;;;;5094374;28;20194;-71
2022/03/12 15:20:49;;;;;;;4.75;4.22;;;13.70;99.90;;;;;;5094423;28;20520;-74
2022/03/12 15:23:22;;;;;;;4.32;4.03;;;14.10;99.90;;;;;;5094376;28;20163;-73
2022/03/12 15:25:58;;;;;;;4.50;4.20;;;13.70;99.90;;;;;;5093560;28;20163;-76
2022/03/12 15:28:27;;;;;;;5.07;4.60;;;13.70;99.90;;;;;;5094358;28;20179;-76
2022/03/12 15:30:56;;;;;;;5.93;4.25;;;13.60;99.90;;;;;;5094261;28;20521;-72
2022/03/12 15:33:52;;;;;;;6.93;4.65;;;13.70;99.90;;;;;;5094212;28;20164;-78
2022/03/12 15:36:24;;;;;;;11.43;5.50;;;13.70;99.90;;;;;;5091193;28;20218;-78
2022/03/12 15:38:59;;;;;;;7.25;5.72;;;13.60;99.90;;;;;;5094060;28;20520;-77
2022/03/12 15:41:27;;;;;;;6.30;4.35;;;13.60;99.90;;;;;;5093964;28;20250;-72
2022/03/12 15:43:54;;;;;;;6.22;4.10;;;13.60;99.90;;;;;;5092754;28;20224;-72
2022/03/12 15:46:22;;;;;;;4.07;3.78;;;13.50;99.90;;;;;;5093911;28;20171;-71
2022/03/12 15:48:48;;;;;;;5.07;4.35;;;13.50;99.90;;;;;;5093877;28;20221;-71
2022/03/12 15:51:14;;;;;;;7.95;4.65;;;13.40;99.90;;;;;;5093909;28;20582;-77
2022/03/12 15:53:42;;;;;;;4.80;4.40;;;13.40;99.90;;;;;;5093849;28;20191;-71
2022/03/12 15:56:09;;;;;;;5.13;3.92;;;13.30;99.90;;;;;;5092702;28;20182;-72
2022/03/12 15:58:36;;;;;;;4.88;4.57;;;13.30;99.90;;;;;;5093821;28;20167;-77
2022/03/12 16:01:03;;;;;;;5.82;5.00;;;13.20;99.90;;;;;;5093487;28;20179;-76
2022/03/12 16:03:30;;;;;;;5.03;4.63;;;13.10;99.90;;;;;;5093812;28;20164;-75
2022/03/12 16:05:57;;;;;;;5.03;4.53;;;13.10;99.90;;;;;;5092384;28;20262;-78
2022/03/12 16:08:24;;;;;;;5.72;4.85;;;13.10;99.90;;;;;;5093676;28;20159;-76
2022/03/12 16:10:49;;;;;;;6.07;5.57;;;13.10;99.90;;;;;;5093644;28;20171;-74
2022/03/12 16:13:15;;;;;;;12.43;9.68;;;13.10;99.90;;;;;;5093546;28;20160;-70
2022/03/12 16:15:44;;;;;;;6.88;6.28;;;13.00;99.90;;;;;;5093591;28;20168;-68
2022/03/12 16:18:11;;;;;;;20.50;14.27;;;12.90;99.90;;;;;;5093486;28;20683;-70
2022/03/12 16:20:40;;;;;;;9.38;7.80;;;12.90;99.90;;;;;;5093450;28;20255;-71
2022/03/12 16:23:06;;;;;;;10.10;5.93;;;12.80;99.90;;;;;;5093469;28;20629;-69
2022/03/12 16:25:32;;;;;;;6.82;6.05;;;12.70;99.90;;;;;;5093451;28;20171;-71
2022/03/12 16:27:59;;;;;;;8.35;5.68;;;12.70;99.90;;;;;;5093231;28;20220;-76
2022/03/12 16:30:26;;;;;;;6.35;5.82;;;12.80;99.90;;;;;;5093408;28;20226;-73
2022/03/12 16:32:53;;;;;;;8.35;6.07;;;12.60;99.90;;;;;;5092042;28;20544;-72
2022/03/12 16:35:26;;;;;;;6.13;5.50;;;12.50;99.90;;;;;;5093348;28;20595;-73
2022/03/12 16:38:02;;;;;;;6.22;5.63;;;12.50;99.90;;;;;;5093383;28;20496;-75
2022/03/12 16:40:32;;;;;;;7.30;6.03;;;12.20;99.90;;;;;;5093310;28;20240;-75
2022/03/12 16:42:59;;;;;;;7.07;6.47;;;12.30;99.90;;;;;;5093380;28;20167;-74
2022/03/12 16:45:26;;;;;;;10.20;8.82;;;12.20;99.90;;;;;;5093283;28;20167;-74
2022/03/12 16:47:58;;;;;;;20.10;13.68;;;12.10;99.90;;;;;;5093868;28;20171;-78
2022/03/12 16:50:29;;;;;;;17.08;11.68;;;12.00;99.90;;;;;;5097330;28;20199;-76
2022/03/12 16:52:55;;;;;;;12.02;8.70;;;12.00;99.90;;;;;;5097307;28;20244;-71
2022/03/12 16:55:21;;;;;;;7.07;6.28;;;11.80;99.90;;;;;;5095962;28;20232;-70
2022/03/12 16:57:49;;;;;;;6.65;6.05;;;11.70;99.90;;;;;;5096996;28;20191;-73
2022/03/12 17:00:16;;;;;;;6.53;5.93;;;11.60;99.90;;;;;;5097036;28;20160;-73
2022/03/12 17:02:41;;;;;;;7.22;6.50;;;11.50;99.90;;;;;;5096064;28;20167;-73
2022/03/12 17:05:08;;;;;;;7.05;6.35;;;11.50;99.90;;;;;;5096067;28;20163;-74
2022/03/12 17:07:35;;;;;;;7.68;6.85;;;11.30;99.90;;;;;;5096739;28;20625;-73
2022/03/12 17:10:02;;;;;;;14.52;8.73;;;11.20;99.90;;;;;;5095674;28;20179;-73
2022/03/12 17:12:28;;;;;;;10.13;6.43;;;11.20;99.90;;;;;;5096940;28;20167;-73
2022/03/12 17:14:54;;;;;;;6.70;6.07;;;11.10;99.90;;;;;;5096809;28;20274;-73
2022/03/12 17:17:22;;;;;;;8.45;7.57;;;11.00;99.90;;;;;;5096562;28;20728;-72
2022/03/12 17:19:47;;;;;;;9.90;7.50;;;10.90;99.90;;;;;;5095460;28;20172;-72
2022/03/12 17:22:13;;;;;;;26.67;15.43;;;10.90;99.90;;;;;;5096615;28;20183;-72
